메인 페이지
METAR-TAF:

METAR-TAF

공항 :

브뤼셀 공항

브뤼셀, 벨기에

위도: 50-54N, 경도: 004-32E, 고도: 55m

현재 날씨관측

예보는 41분 전, 16:50시(UTC)에 발표되었습니다.
2kt
온도 16°C
습도 77%
기압 1019 hPa
시정 10km 이상
1500m 미만 상공 구름 및 적란운 없음

METAR: EBBR 171650Z 36002KT CAVOK 16/12 Q1019 NOSIG

시각: 19:31 (17:31 UTC)

예보

예보는 6 시간 21분 전, 11:10시(UTC)에 발표되었습니다.
예보 대상 시간: 17일 12시부터 18일 18시까지 (UTC)
북북동4kt
시정 10km 이상
고도 2000ft 상공 구름 보통
고도 3500ft 상공 구름 보통
확률 30% :
일시적
18일 03시부터 18일 07시까지 (UTC)
시정: 4000m
박무

TAF: EBBR 171110Z 1712/1818 02004KT 9999 SCT020 SCT035 PROB30 TEMPO 1803/1807 4000 BR

4,000개 이상의 공항 관측 자료 및 예보 (METAR 및 TAF 보고).

지도상에서 검색 가능한 기상관측소가 노란 점과 빨간 점으로 표시되어 있습니다.

기상관측소 명을 보려면 표시 위로 마우스를 이동하세요.

날씨 관측과 예보를 보려면 클릭하세요.

지도 변경 : 확대하려면 엑스 표시가 있는 녹색 버튼, 축소하려면 빼기 표시가 있는 녹색 버튼, 다음 페이지의 지도를 보려면 녹색 화살표를 클릭하세요.


METAR-TAF: